Time;durP1;ratioP1;P1;durP2;ratioP2;P2;SDS_P1;SDS_P2;PMS_P1;PMS_P2;Temp;Humidity;BMP_temperature;BMP_pressure;BME280_temperature;BME280_humidity;BME280_pressure;Samples;Min_cycle;Max_cycle;Signal;HPM_P1;HPM_P2
2021/08/22 00:02:01;;;;;;;11.45;7.88;;;;;;;17.46;68.61;95360.91;5068203;28;20044;-64
2021/08/22 00:04:29;;;;;;;15.38;8.57;;;;;;;17.51;67.81;95355.66;5067896;28;20045;-64
2021/08/22 00:06:56;;;;;;;11.77;7.68;;;;;;;17.50;68.27;95354.88;5068823;28;20167;-64
2021/08/22 00:09:23;;;;;;;11.95;8.35;;;;;;;17.55;67.49;95354.06;5066472;28;20052;-64
2021/08/22 00:11:50;;;;;;;13.00;8.40;;;;;;;17.57;67.23;95354.59;5066575;28;20041;-64
2021/08/22 00:14:17;;;;;;;13.48;8.70;;;;;;;17.47;67.84;95355.38;5068165;28;20090;-64
2021/08/22 00:16:45;;;;;;;12.55;9.18;;;;;;;17.42;68.04;95347.47;5068220;28;20468;-64
2021/08/22 00:19:12;;;;;;;15.40;8.98;;;;;;;17.43;67.57;95353.50;5067856;28;20046;-64
2021/08/22 00:21:39;;;;;;;13.48;9.82;;;;;;;17.44;67.79;95363.78;5068208;28;20405;-64
2021/08/22 00:24:06;;;;;;;16.98;9.77;;;;;;;17.35;68.24;95363.50;5067809;28;20043;-64
2021/08/22 00:26:33;;;;;;;15.63;8.60;;;;;;;17.37;67.98;95361.41;5067833;28;20106;-64
2021/08/22 00:28:59;;;;;;;20.60;9.52;;;;;;;17.37;67.51;95361.41;5067531;28;20044;-65
2021/08/22 00:31:26;;;;;;;11.25;9.00;;;;;;;17.36;67.48;95365.09;5067810;28;20088;-64
2021/08/22 00:33:53;;;;;;;11.30;7.97;;;;;;;17.36;66.58;95365.09;5067768;28;20040;-64
2021/08/22 00:36:20;;;;;;;12.75;8.07;;;;;;;17.35;66.59;95360.88;5067772;28;20059;-65
2021/08/22 00:38:47;;;;;;;11.77;7.97;;;;;;;17.35;66.42;95363.50;5068018;28;20095;-64
2021/08/22 00:41:14;;;;;;;9.50;7.53;;;;;;;17.28;65.95;95360.34;5066373;28;20504;-64
2021/08/22 00:43:45;;;;;;;10.40;7.95;;;;;;;17.30;66.19;95365.34;5067694;28;20105;-64
2021/08/22 00:46:12;;;;;;;9.50;6.82;;;;;;;17.27;66.10;95364.03;5066405;28;20501;-64
2021/08/22 00:48:42;;;;;;;12.73;7.13;;;;;;;17.25;66.12;95362.69;5067535;28;20036;-64
2021/08/22 00:51:09;;;;;;;10.77;7.57;;;;;;;17.29;66.32;95363.78;5066271;28;20106;-64
2021/08/22 00:53:37;;;;;;;11.35;7.32;;;;;;;17.28;65.74;95362.97;5066232;28;20033;-64
2021/08/22 00:56:05;;;;;;;12.00;8.32;;;;;;;17.26;66.12;95361.66;5067063;28;20076;-64
2021/08/22 00:58:32;;;;;;;9.90;7.65;;;;;;;17.24;66.46;95361.91;5067309;28;20040;-64
2021/08/22 01:01:01;;;;;;;11.50;6.88;;;;;;;17.22;66.51;95353.47;5067297;28;20036;-64
2021/08/22 01:03:49;;;;;;;8.88;7.38;;;;;;;17.16;66.21;95338.72;5067195;28;20116;-64
2021/08/22 01:06:28;;;;;;;11.40;6.82;;;;;;;17.23;65.96;95365.56;5066719;28;20129;-64
2021/08/22 01:09:04;;;;;;;8.60;7.07;;;;;;;17.20;65.88;95358.22;5065898;28;20040;-64
2021/08/22 01:11:35;;;;;;;17.85;8.18;;;;;;;17.15;66.02;95359.00;5066748;28;20102;-64
2021/08/22 01:14:08;;;;;;;10.95;6.45;;;;;;;17.11;66.18;95362.41;5065815;28;20089;-64
2021/08/22 01:16:39;;;;;;;11.35;7.10;;;;;;;17.08;66.28;95352.41;5066405;28;20387;-64
2021/08/22 01:19:48;;;;;;;13.70;7.20;;;;;;;17.05;66.15;95358.16;5066525;28;20048;-64
2021/08/22 01:22:17;;;;;;;9.88;6.90;;;;;;;17.00;66.58;95356.31;5054910;28;20057;-65
2021/08/22 01:24:45;;;;;;;13.50;7.15;;;;;;;17.04;66.48;95362.66;5066216;28;20523;-64
2021/08/22 01:27:14;;;;;;;13.38;7.88;;;;;;;16.97;66.75;95354.97;5066107;28;20044;-64
2021/08/22 01:30:00;;;;;;;11.05;6.82;;;;;;;16.95;67.12;95357.09;5066490;28;20049;-64
2021/08/22 01:32:54;;;;;;;11.45;7.32;;;;;;;16.94;66.50;95363.41;5065198;28;20413;-65
2021/08/22 01:35:23;;;;;;;15.40;7.07;;;;;;;16.89;67.32;95363.38;5064651;28;20063;-63
2021/08/22 01:37:51;;;;;;;14.40;8.20;;;;;;;16.92;66.88;95362.06;5064430;28;20849;-64
2021/08/22 01:40:22;;;;;;;9.88;6.68;;;;;;;16.89;67.11;95360.75;5065877;28;20579;-64
2021/08/22 01:42:50;;;;;;;10.10;7.03;;;;;;;16.88;66.99;95363.66;5063564;28;20048;-65
2021/08/22 01:45:20;;;;;;;7.80;6.85;;;;;;;16.85;67.23;95353.63;5064859;28;20501;-64
2021/08/22 01:47:48;;;;;;;10.65;7.50;;;;;;;16.80;67.33;95357.00;5066021;28;20051;-64
2021/08/22 01:50:17;;;;;;;11.98;8.32;;;;;;;16.68;67.84;95348.53;5065888;28;20068;-64
2021/08/22 01:52:45;;;;;;;9.63;7.50;;;;;;;16.71;68.03;95358.53;5065803;28;20559;-64
2021/08/22 01:55:12;;;;;;;14.70;7.65;;;;;;;16.73;67.86;95357.25;5065916;28;20037;-64
2021/08/22 01:57:42;;;;;;;8.35;7.15;;;;;;;16.74;68.05;95358.03;5046524;28;20466;-64
2021/08/22 02:00:10;;;;;;;9.82;6.53;;;;;;;16.66;67.58;95345.38;5063146;28;20048;-64
2021/08/22 02:02:42;;;;;;;13.15;7.72;;;;;;;16.71;68.66;95350.63;5066331;28;20032;-64
2021/08/22 02:05:12;;;;;;;13.18;6.80;;;;;;;16.77;68.17;95352.25;5066254;28;20050;-64
2021/08/22 02:07:39;;;;;;;8.15;6.88;;;;;;;16.81;67.80;95353.31;5066237;28;20099;-64
2021/08/22 02:10:10;;;;;;;12.18;7.20;;;;;;;16.81;68.00;95348.06;5047449;28;20406;-65
2021/08/22 02:12:39;;;;;;;13.45;7.40;;;;;;;16.81;68.52;95353.31;5065977;28;20041;-64
2021/08/22 02:15:15;;;;;;;15.13;7.50;;;;;;;16.72;69.02;95349.59;5065044;28;20078;-64
2021/08/22 02:17:49;;;;;;;10.57;7.47;;;;;;;16.66;69.21;95345.38;5064565;28;20045;-64
2021/08/22 02:20:17;;;;;;;15.23;7.22;;;;;;;16.59;69.67;95335.09;5065407;28;20056;-64
2021/08/22 02:22:46;;;;;;;7.82;6.80;;;;;;;16.63;69.82;95342.19;5065191;28;20036;-65
2021/08/22 02:25:14;;;;;;;10.38;7.65;;;;;;;16.69;69.25;95339.59;5065645;28;20052;-64
2021/08/22 02:27:42;;;;;;;10.77;7.10;;;;;;;16.72;68.98;95341.72;5065598;28;20055;-64
2021/08/22 02:30:09;;;;;;;13.07;7.32;;;;;;;16.73;68.35;95341.47;5065463;28;20044;-65
2021/08/22 02:32:37;;;;;;;7.80;6.70;;;;;;;16.78;68.31;95343.31;5064719;28;20452;-64
2021/08/22 02:35:04;;;;;;;8.55;6.40;;;;;;;16.79;68.54;95342.28;5065667;28;20051;-64
2021/08/22 02:37:31;;;;;;;17.25;7.82;;;;;;;16.71;69.61;95343.56;5065257;28;20052;-65
2021/08/22 02:39:58;;;;;;;12.90;8.07;;;;;;;16.63;70.03;95347.44;5065495;28;20074;-64
2021/08/22 02:42:25;;;;;;;8.75;6.93;;;;;;;16.62;69.22;95334.56;5063847;28;20052;-64
2021/08/22 02:44:52;;;;;;;9.57;8.07;;;;;;;16.51;69.65;95339.00;5065579;28;20071;-64
2021/08/22 02:47:18;;;;;;;14.70;7.72;;;;;;;16.52;70.56;95348.44;5065338;28;20044;-64
2021/08/22 02:49:45;;;;;;;12.02;7.88;;;;;;;16.54;70.07;95342.94;5065424;28;20049;-64
2021/08/22 02:52:13;;;;;;;11.75;8.43;;;;;;;16.51;69.79;95341.63;5065024;28;20045;-64
2021/08/22 02:54:40;;;;;;;10.90;8.15;;;;;;;16.48;69.86;95350.00;5065197;28;20051;-64
2021/08/22 02:57:07;;;;;;;10.85;7.60;;;;;;;16.43;70.47;95349.97;5065023;28;20048;-64
2021/08/22 02:59:34;;;;;;;12.98;7.85;;;;;;;16.34;71.19;95343.63;5065214;28;20098;-64
2021/08/22 03:02:00;;;;;;;16.02;9.00;;;;;;;16.24;71.04;95339.09;5065243;28;20460;-64
2021/08/22 03:04:28;;;;;;;12.77;8.85;;;;;;;16.24;71.07;95345.16;5065188;28;20036;-64
2021/08/22 03:06:54;;;;;;;14.70;8.00;;;;;;;16.25;70.72;95351.97;5046107;28;20045;-64
2021/08/22 03:09:21;;;;;;;13.68;9.90;;;;;;;16.21;70.61;95350.91;5066092;28;20063;-64
2021/08/22 03:11:48;;;;;;;12.50;8.90;;;;;;;16.15;71.21;95341.44;5068518;28;20045;-64
2021/08/22 03:14:15;;;;;;;13.80;8.77;;;;;;;16.09;72.10;95347.66;5068975;28;20048;-64
2021/08/22 03:16:41;;;;;;;18.38;9.25;;;;;;;16.00;72.63;95349.97;5069296;28;20524;-64
2021/08/22 03:19:08;;;;;;;12.80;9.02;;;;;;;15.87;73.41;95353.03;5069286;28;20449;-64
2021/08/22 03:21:35;;;;;;;16.05;9.95;;;;;;;15.75;73.93;95358.44;5069417;28;20101;-64
2021/08/22 03:24:02;;;;;;;14.40;8.90;;;;;;;15.62;73.83;95353.59;5069304;28;20044;-64
2021/08/22 03:26:29;;;;;;;15.50;9.15;;;;;;;15.52;74.26;95358.75;5069390;28;20110;-63
2021/08/22 03:28:55;;;;;;;13.35;8.23;;;;;;;15.43;73.85;95356.59;5069614;28;20048;-64
2021/08/22 03:31:22;;;;;;;13.75;9.38;;;;;;;15.37;75.10;95362.81;5069178;28;20040;-63
2021/08/22 03:33:49;;;;;;;16.42;9.27;;;;;;;15.20;75.57;95359.50;5068087;28;20468;-62
2021/08/22 03:36:18;;;;;;;12.50;9.50;;;;;;;15.17;75.86;95360.00;5049786;28;20044;-63
2021/08/22 03:38:45;;;;;;;13.60;8.75;;;;;;;15.00;76.96;95363.50;5068943;28;20053;-63
2021/08/22 03:41:12;;;;;;;17.85;11.02;;;;;;;14.90;77.87;95353.66;5068900;28;20036;-63
2021/08/22 03:43:39;;;;;;;13.40;11.02;;;;;;;15.01;77.47;95359.81;5067861;28;20044;-63
2021/08/22 03:46:06;;;;;;;15.13;10.23;;;;;;;15.08;77.94;95360.41;5068835;28;20057;-63
2021/08/22 03:48:33;;;;;;;12.60;9.93;;;;;;;15.08;77.87;95365.66;5068872;28;20067;-63
2021/08/22 03:50:59;;;;;;;14.65;9.50;;;;;;;15.08;78.30;95360.41;5069072;28;20097;-63
2021/08/22 03:53:26;;;;;;;16.52;9.95;;;;;;;15.12;78.39;95365.19;5068651;28;20040;-63
2021/08/22 03:55:53;;;;;;;14.38;10.18;;;;;;;15.19;77.97;95363.16;5068386;28;20049;-63
2021/08/22 03:58:20;;;;;;;12.98;9.15;;;;;;;15.28;77.45;95369.53;5068472;28;20048;-63
2021/08/22 04:00:46;;;;;;;12.27;9.48;;;;;;;15.36;77.65;95363.03;5068693;28;20113;-64
2021/08/22 04:03:13;;;;;;;13.10;9.95;;;;;;;15.39;77.40;95371.22;5068515;28;20048;-63
2021/08/22 04:06:01;;;;;;;12.05;9.77;;;;;;;15.45;77.70;95375.50;5040913;28;20110;-64
2021/08/22 04:08:28;;;;;;;12.70;9.75;;;;;;;15.51;77.83;95380.81;5068500;28;20043;-64
2021/08/22 04:10:55;;;;;;;13.15;9.10;;;;;;;15.56;77.90;95370.34;5068292;28;20044;-64
2021/08/22 04:13:21;;;;;;;17.08;9.65;;;;;;;15.59;77.76;95380.34;5068064;28;20037;-64
2021/08/22 04:15:49;;;;;;;16.35;12.35;;;;;;;15.58;77.10;95382.19;5068246;28;20059;-64
2021/08/22 04:18:17;;;;;;;13.23;10.60;;;;;;;15.58;77.78;95384.03;5067751;28;20047;-63
2021/08/22 04:20:44;;;;;;;14.88;10.82;;;;;;;15.55;77.81;95384.50;5066674;28;20464;-64
2021/08/22 04:23:11;;;;;;;17.00;10.90;;;;;;;15.44;77.97;95363.41;5067961;28;20044;-64
2021/08/22 04:25:38;;;;;;;17.73;13.27;;;;;;;15.64;78.08;95388.25;5068078;28;20509;-63
2021/08/22 04:28:06;;;;;;;18.73;10.75;;;;;;;15.69;77.72;95385.69;5067892;28;20521;-64
2021/08/22 04:30:33;;;;;;;22.05;12.15;;;;;;;15.74;77.68;95398.91;5067933;28;20049;-64
2021/08/22 04:33:00;;;;;;;21.25;11.98;;;;;;;15.86;78.31;95391.66;5065848;28;20102;-64
2021/08/22 04:35:29;;;;;;;15.02;11.40;;;;;;;15.91;78.26;95392.72;5067835;28;20044;-64
2021/08/22 04:37:56;;;;;;;20.23;12.63;;;;;;;16.02;77.45;95394.38;5067970;28;20048;-64
2021/08/22 04:40:23;;;;;;;15.85;12.48;;;;;;;16.05;77.46;95393.91;5067404;28;20778;-65
2021/08/22 04:42:50;;;;;;;22.45;13.48;;;;;;;16.11;77.43;95403.38;5066082;28;20036;-65
2021/08/22 04:45:17;;;;;;;22.10;12.32;;;;;;;16.09;76.64;95397.59;5067399;28;20050;-65
2021/08/22 04:47:43;;;;;;;22.33;13.57;;;;;;;16.12;77.22;95399.72;5067685;28;20068;-66
2021/08/22 04:50:11;;;;;;;28.27;12.38;;;;;;;16.25;76.58;95409.81;5067420;28;20153;-65
2021/08/22 04:52:38;;;;;;;16.20;11.55;;;;;;;16.32;76.46;95399.06;5067230;28;20033;-64
2021/08/22 04:55:06;;;;;;;15.75;11.10;;;;;;;16.34;76.49;95399.63;5066317;28;20694;-64
2021/08/22 04:57:36;;;;;;;21.80;12.00;;;;;;;16.41;76.40;95397.56;5065779;28;20032;-63
2021/08/22 05:00:04;;;;;;;25.15;12.98;;;;;;;16.43;77.00;95399.94;5067066;28;20037;-63
2021/08/22 05:02:31;;;;;;;23.08;12.77;;;;;;;16.42;77.06;95398.34;5066936;28;20044;-64
2021/08/22 05:04:58;;;;;;;19.73;12.93;;;;;;;16.44;77.94;95401.53;5067318;28;20040;-65
2021/08/22 05:07:25;;;;;;;20.75;12.15;;;;;;;16.47;78.01;95390.50;5067434;28;20060;-63
2021/08/22 05:09:52;;;;;;;24.63;13.68;;;;;;;16.67;78.35;95410.06;5066873;28;20056;-63
2021/08/22 05:12:19;;;;;;;21.27;12.95;;;;;;;16.79;78.14;95408.03;5065083;28;20563;-63
2021/08/22 05:14:45;;;;;;;28.15;12.93;;;;;;;16.85;78.37;95416.75;5065726;28;20046;-63
2021/08/22 05:17:12;;;;;;;35.70;13.65;;;;;;;16.88;77.82;95403.88;5067062;28;20044;-63
2021/08/22 05:19:39;;;;;;;32.35;13.75;;;;;;;16.95;77.27;95407.06;5049012;28;20095;-63
2021/08/22 05:22:06;;;;;;;32.00;13.50;;;;;;;17.03;77.36;95407.63;5066984;28;20041;-63
2021/08/22 05:24:33;;;;;;;41.28;13.32;;;;;;;17.05;77.19;95408.16;5066693;28;20036;-63
2021/08/22 05:27:00;;;;;;;48.17;14.32;;;;;;;17.03;77.22;95405.00;5066360;28;20044;-63
2021/08/22 05:29:30;;;;;;;32.25;11.80;;;;;;;17.04;78.31;95406.59;5066696;28;20063;-63
2021/08/22 05:31:57;;;;;;;53.28;12.95;;;;;;;17.08;78.32;95415.56;5066316;28;20044;-63
2021/08/22 05:34:23;;;;;;;29.00;12.52;;;;;;;17.10;77.14;95418.72;5066957;28;20037;-63
2021/08/22 05:36:50;;;;;;;23.60;11.77;;;;;;;17.05;76.98;95410.78;5065636;28;20106;-63
2021/08/22 05:39:17;;;;;;;25.48;11.77;;;;;;;17.10;77.13;95413.44;5066848;28;20060;-64
2021/08/22 05:41:44;;;;;;;25.52;12.68;;;;;;;17.11;76.82;95422.94;5065359;28;20036;-63
2021/08/22 05:44:10;;;;;;;27.85;13.82;;;;;;;17.24;77.42;95425.09;5065217;28;20044;-63
2021/08/22 05:46:37;;;;;;;28.85;13.52;;;;;;;17.36;78.11;95417.75;5066422;28;20047;-63
2021/08/22 05:49:04;;;;;;;34.05;11.68;;;;;;;17.43;77.29;95416.72;5066293;28;20555;-63
2021/08/22 05:51:31;;;;;;;23.08;11.18;;;;;;;17.51;75.15;95418.84;5066481;28;20074;-63
2021/08/22 05:53:57;;;;;;;16.33;9.60;;;;;;;17.57;73.41;95423.06;5066345;28;20093;-63
2021/08/22 05:56:24;;;;;;;17.58;9.05;;;;;;;17.58;73.28;95419.38;5066038;28;20044;-63
2021/08/22 05:58:51;;;;;;;11.75;8.98;;;;;;;17.61;72.62;95408.34;5065240;28;20048;-63
2021/08/22 06:01:18;;;;;;;13.45;8.82;;;;;;;17.69;70.92;95426.25;5064939;28;20390;-64
2021/08/22 06:03:45;;;;;;;12.05;8.65;;;;;;;17.77;70.53;95423.13;5065127;28;20755;-64
2021/08/22 06:06:12;;;;;;;14.32;8.20;;;;;;;17.84;69.80;95427.31;5065056;28;20127;-63
2021/08/22 06:08:39;;;;;;;12.35;8.52;;;;;;;17.95;69.78;95428.94;5064930;28;20043;-65
2021/08/22 06:11:06;;;;;;;11.55;7.97;;;;;;;18.11;69.74;95425.28;5064799;28;20052;-65
2021/08/22 06:13:33;;;;;;;9.70;7.45;;;;;;;18.26;68.25;95423.69;5065362;28;20036;-65
2021/08/22 06:16:00;;;;;;;10.32;7.00;;;;;;;18.32;67.29;95420.00;5065249;28;20127;-65
2021/08/22 06:18:27;;;;;;;10.80;7.65;;;;;;;18.41;67.26;95421.03;5064928;28;20094;-65
2021/08/22 06:20:54;;;;;;;9.88;7.13;;;;;;;18.49;67.40;95423.16;5065525;28;20044;-65
2021/08/22 06:23:20;;;;;;;11.07;8.05;;;;;;;18.56;66.60;95416.78;5065564;28;20060;-65
2021/08/22 06:25:47;;;;;;;10.55;7.30;;;;;;;18.67;66.03;95418.34;5064972;28;20078;-63
2021/08/22 06:28:14;;;;;;;7.78;6.50;;;;;;;18.78;65.29;95419.91;5060632;28;20045;-64
2021/08/22 06:30:42;;;;;;;10.07;7.20;;;;;;;18.84;64.53;95413.59;5063807;28;20123;-63
2021/08/22 06:33:09;;;;;;;9.73;7.25;;;;;;;18.93;64.34;95413.06;5063860;28;20067;-63
2021/08/22 06:35:36;;;;;;;11.10;7.60;;;;;;;19.01;64.18;95415.13;5065479;28;20094;-63
2021/08/22 06:38:03;;;;;;;11.48;7.63;;;;;;;19.09;62.86;95409.28;5064033;28;20033;-63
2021/08/22 06:40:30;;;;;;;9.38;7.25;;;;;;;19.24;63.79;95416.34;5064114;28;20418;-64
2021/08/22 06:42:57;;;;;;;9.85;6.65;;;;;;;19.36;61.05;95408.13;5064171;28;20498;-63
2021/08/22 06:45:24;;;;;;;9.85;6.95;;;;;;;19.47;60.98;95409.63;5067551;28;20052;-64
2021/08/22 06:47:53;;;;;;;8.55;7.65;;;;;;;19.60;61.35;95411.66;5069540;28;20044;-62
2021/08/22 06:50:23;;;;;;;10.13;6.30;;;;;;;19.75;60.47;95410.00;5069060;28;20405;-63
2021/08/22 06:52:51;;;;;;;9.88;6.65;;;;;;;19.81;59.59;95414.22;5069194;28;20045;-63
2021/08/22 06:55:19;;;;;;;17.85;7.03;;;;;;;19.87;60.23;95410.47;5045654;28;20532;-63
2021/08/22 06:57:48;;;;;;;12.18;6.35;;;;;;;20.00;59.65;95409.81;5067768;28;20044;-64
2021/08/22 07:00:15;;;;;;;9.82;5.82;;;;;;;20.17;58.51;95411.31;5067908;28;20055;-64
2021/08/22 07:02:43;;;;;;;9.75;7.03;;;;;;;20.14;58.56;95414.50;5068894;28;20701;-64
2021/08/22 07:05:12;;;;;;;10.23;6.95;;;;;;;20.34;59.38;95416.19;5068429;28;20493;-63
2021/08/22 07:07:39;;;;;;;8.15;6.65;;;;;;;20.50;59.08;95414.97;5067998;28;20116;-64
2021/08/22 07:10:07;;;;;;;11.73;6.78;;;;;;;20.70;58.22;95414.00;5068335;28;20045;-63
2021/08/22 07:12:34;;;;;;;8.40;6.70;;;;;;;20.89;58.40;95415.94;5066196;28;20044;-63
2021/08/22 07:15:02;;;;;;;11.10;7.07;;;;;;;21.09;58.21;95418.34;5069254;28;20048;-64
2021/08/22 07:17:29;;;;;;;11.27;7.40;;;;;;;21.31;56.44;95417.03;5068467;28;20068;-64
2021/08/22 07:19:56;;;;;;;10.07;6.03;;;;;;;21.51;55.56;95414.13;5069160;28;20052;-64
2021/08/22 07:22:22;;;;;;;7.90;6.57;;;;;;;21.62;55.08;95421.94;5068604;28;20037;-63
2021/08/22 07:24:49;;;;;;;9.55;6.70;;;;;;;21.67;54.52;95413.94;5068920;28;20455;-63
2021/08/22 07:27:16;;;;;;;9.73;6.15;;;;;;;21.72;54.49;95421.81;5068211;28;20067;-64
2021/08/22 07:29:43;;;;;;;8.40;6.85;;;;;;;21.79;53.99;95414.28;5068524;28;20040;-63
2021/08/22 07:32:10;;;;;;;12.05;6.68;;;;;;;21.87;54.03;95413.63;5067784;28;20483;-63
2021/08/22 07:34:37;;;;;;;8.48;6.22;;;;;;;21.92;52.76;95410.91;5062948;28;20057;-63
2021/08/22 07:37:04;;;;;;;7.95;6.07;;;;;;;22.07;52.72;95417.03;5066892;28;20436;-63
2021/08/22 07:39:31;;;;;;;7.47;5.40;;;;;;;22.08;51.88;95413.34;5068553;28;20040;-63
2021/08/22 07:41:59;;;;;;;7.05;5.32;;;;;;;22.21;50.73;95412.56;5065356;28;20509;-63
2021/08/22 07:44:26;;;;;;;8.85;6.57;;;;;;;22.32;51.68;95411.34;5067972;28;20165;-63
2021/08/22 07:46:53;;;;;;;9.45;5.38;;;;;;;22.53;50.01;95418.97;5067573;28;20049;-63
2021/08/22 07:49:20;;;;;;;7.05;5.28;;;;;;;22.74;48.52;95416.72;5069067;28;20144;-63
2021/08/22 07:51:47;;;;;;;9.13;7.03;;;;;;;22.83;50.51;95416.84;5068784;28;20041;-64
2021/08/22 07:54:14;;;;;;;9.20;6.13;;;;;;;22.96;51.16;95405.44;5068780;28;20041;-63
2021/08/22 07:56:42;;;;;;;12.93;5.63;;;;;;;23.10;51.14;95410.75;5068545;28;20060;-64
2021/08/22 07:59:09;;;;;;;6.18;5.20;;;;;;;23.26;49.89;95411.25;5066273;28;20049;-65
2021/08/22 08:01:36;;;;;;;9.02;5.13;;;;;;;23.43;49.42;95408.78;5066647;28;20501;-65
2021/08/22 08:04:04;;;;;;;9.93;5.28;;;;;;;23.67;49.07;95407.72;5067792;28;20110;-65
2021/08/22 08:06:30;;;;;;;14.25;5.18;;;;;;;23.84;46.84;95407.91;5067650;28;20055;-65
2021/08/22 08:08:58;;;;;;;9.57;5.53;;;;;;;23.95;46.67;95410.31;5068384;28;20453;-65
2021/08/22 08:11:25;;;;;;;7.20;5.22;;;;;;;23.92;47.07;95402.97;5068278;28;20052;-66
2021/08/22 08:13:52;;;;;;;7.40;4.88;;;;;;;24.02;46.28;95403.50;5068032;28;20110;-66
2021/08/22 08:16:19;;;;;;;9.57;4.68;;;;;;;24.03;46.07;95404.28;5068176;28;20040;-66
2021/08/22 08:18:47;;;;;;;7.40;4.65;;;;;;;24.04;45.89;95389.91;5068400;28;20050;-67
2021/08/22 08:21:14;;;;;;;12.63;5.35;;;;;;;24.27;47.92;95398.63;5068013;28;20056;-66
2021/08/22 08:23:41;;;;;;;14.65;5.18;;;;;;;24.53;48.34;95395.38;5067094;28;20114;-66
2021/08/22 08:26:08;;;;;;;17.65;5.80;;;;;;;24.84;46.39;95394.56;5067402;28;20044;-65
2021/08/22 08:28:35;;;;;;;16.48;5.72;;;;;;;24.98;44.47;95401.34;5067804;28;20045;-66
2021/08/22 08:31:10;;;;;;;9.32;5.65;;;;;;;25.12;44.92;95389.78;5067179;28;20048;-66
2021/08/22 08:33:37;;;;;;;18.30;5.55;;;;;;;25.27;44.19;95402.72;5065701;28;20040;-66
2021/08/22 08:36:05;;;;;;;17.83;6.85;;;;;;;25.41;45.09;95396.44;5047826;28;20055;-66
2021/08/22 08:38:32;;;;;;;12.07;5.18;;;;;;;25.56;43.33;95396.00;5066928;28;20036;-66
2021/08/22 08:41:04;;;;;;;20.48;4.80;;;;;;;25.66;44.08;95387.72;5066530;28;20041;-66
2021/08/22 08:43:31;;;;;;;9.20;5.60;;;;;;;25.95;43.87;95394.31;5065662;28;20090;-66
2021/08/22 08:46:06;;;;;;;19.13;10.65;;;;;;;26.22;43.17;95377.16;5067021;28;20055;-66
2021/08/22 08:49:00;;;;;;;14.75;5.10;;;;;;;26.41;40.79;95387.47;5067662;28;20040;-66
2021/08/22 08:52:04;;;;;;;21.17;6.97;;;;;;;26.52;40.12;95386.03;5066930;28;20045;-66
2021/08/22 08:54:40;;;;;;;21.27;5.07;;;;;;;26.68;38.98;95380.19;5065146;28;20161;-66
2021/08/22 08:57:07;;;;;;;22.35;6.43;;;;;;;26.71;39.50;95374.22;5065485;28;20071;-66
2021/08/22 08:59:38;;;;;;;19.42;5.93;;;;;;;27.01;38.89;95379.56;5064030;28;20509;-66
2021/08/22 09:02:05;;;;;;;19.23;6.05;;;;;;;27.16;38.35;95379.03;5066248;28;20445;-66
2021/08/22 09:04:39;;;;;;;17.27;4.93;;;;;;;27.32;39.66;95373.16;5066380;28;20075;-66
2021/08/22 09:07:40;;;;;;;14.45;5.22;;;;;;;27.56;38.89;95383.97;5066468;28;20040;-66
2021/08/22 09:10:40;;;;;;;9.23;4.57;;;;;;;27.90;36.50;95379.50;5066779;28;20100;-66
2021/08/22 09:13:35;;;;;;;10.90;4.20;;;;;;;27.95;35.60;95381.19;5066054;28;20048;-66
2021/08/22 09:16:10;;;;;;;6.78;4.78;;;;;;;28.16;34.84;95383.81;5066825;28;20055;-66
2021/08/22 09:19:14;;;;;;;7.88;4.70;;;;;;;28.50;34.09;95377.31;5066769;28;20051;-66
2021/08/22 09:22:18;;;;;;;9.20;4.45;;;;;;;28.79;33.62;95371.03;5066036;28;20036;-67
2021/08/22 09:25:23;;;;;;;8.65;4.20;;;;;;;29.21;32.89;95372.72;5065842;28;20044;-67
2021/08/22 09:28:39;;;;;;;14.40;4.22;;;;;;;29.47;31.32;95369.63;5066515;28;20431;-67
2021/08/22 09:31:44;;;;;;;7.68;3.97;;;;;;;29.64;33.26;95367.81;5065674;28;20048;-66
2021/08/22 09:34:29;;;;;;;;;;;;;;;29.86;34.36;95370.00;5066378;28;20048;-66
2021/08/22 09:37:09;;;;;;;6.70;4.60;;;;;;;30.20;31.67;95367.06;5065664;28;20007;-66
2021/08/22 09:39:36;;;;;;;7.78;4.10;;;;;;;30.52;30.14;95362.53;5066795;28;20048;-67
2021/08/22 09:42:40;;;;;;;6.07;4.22;;;;;;;30.68;30.28;95360.63;5066499;28;20393;-65
2021/08/22 09:45:25;;;;;;;;;;;;;;;30.62;30.21;95356.63;5065281;28;20417;-67
2021/08/22 09:48:20;;;;;;;9.50;4.85;;;;;;;31.04;29.42;95356.13;5065192;28;19921;-65
2021/08/22 09:51:08;;;;;;;6.57;4.05;;;;;;;31.28;28.13;95358.91;5066328;28;20049;-66
2021/08/22 09:54:03;;;;;;;7.22;3.95;;;;;;;30.97;25.68;95350.59;5066087;28;20037;-66
2021/08/22 09:57:06;;;;;;;10.40;5.40;;;;;;;31.17;26.89;95353.31;5066271;28;20047;-65
2021/08/22 10:00:01;;;;;;;9.73;7.63;;;;;;;31.64;26.56;95360.50;5064883;28;20036;-65
2021/08/22 10:03:09;;;;;;;21.17;9.88;;;;;;;31.58;28.60;95351.91;5066017;28;20071;-65
2021/08/22 10:05:55;;;;;;;16.38;7.43;;;;;;;31.46;27.38;95346.66;5052341;28;20133;-66
2021/08/22 10:08:28;;;;;;;12.55;6.22;;;;;;;31.87;25.97;95347.06;5066436;28;20514;-65
2021/08/22 10:10:59;;;;;;;5.72;5.05;;;;;;;31.57;25.31;95344.19;5066779;28;20047;-66
2021/08/22 10:13:26;;;;;;;5.35;4.55;;;;;;;31.70;26.12;95337.53;5066152;28;20049;-66
2021/08/22 10:15:53;;;;;;;10.43;4.03;;;;;;;31.71;24.59;95341.78;5066123;28;20057;-66
2021/08/22 10:18:26;;;;;;;7.35;4.95;;;;;;;31.66;25.95;95342.06;5065563;28;20162;-65
2021/08/22 10:21:07;;;;;;;7.20;4.20;;;;;;;32.10;25.49;95339.06;5065612;28;20036;-66
2021/08/22 10:23:42;;;;;;;11.23;5.63;;;;;;;32.36;23.78;95341.09;5066416;28;20094;-66
2021/08/22 10:26:30;;;;;;;10.38;6.35;;;;;;;32.48;23.20;95337.41;5066151;28;20456;-66
2021/08/22 10:29:00;;;;;;;8.55;4.38;;;;;;;32.56;23.74;95339.09;5051686;28;20062;-65
2021/08/22 10:31:52;;;;;;;10.77;5.80;;;;;;;32.85;23.79;95334.19;5065938;28;20036;-66
2021/08/22 10:34:23;;;;;;;6.57;4.05;;;;;;;33.19;22.96;95331.63;5064796;28;20429;-65
2021/08/22 10:36:51;;;;;;;6.65;3.95;;;;;;;33.30;23.13;95327.16;5065137;28;20052;-66
2021/08/22 10:39:25;;;;;;;6.90;4.18;;;;;;;33.59;22.15;95327.50;5066011;28;20093;-66
2021/08/22 10:42:17;;;;;;;6.63;4.82;;;;;;;33.51;22.97;95321.25;5065642;28;20382;-67
2021/08/22 10:44:44;;;;;;;4.70;4.20;;;;;;;33.91;21.78;95327.13;5044556;28;20052;-66
2021/08/22 10:47:13;;;;;;;10.43;4.18;;;;;;;34.01;21.74;95336.50;5064411;28;20044;-66
2021/08/22 10:49:52;;;;;;;5.97;4.72;;;;;;;34.40;20.50;95326.09;5065829;28;20427;-65
2021/08/22 10:52:35;;;;;;;8.43;3.92;;;;;;;34.27;20.05;95327.53;5065542;28;20049;-66
2021/08/22 10:55:11;;;;;;;6.05;4.28;;;;;;;34.68;20.03;95322.03;5064842;28;20044;-65
2021/08/22 10:57:50;;;;;;;4.88;4.38;;;;;;;34.69;20.03;95318.22;5064450;28;20037;-65
2021/08/22 11:00:35;;;;;;;11.30;4.80;;;;;;;34.36;20.74;95322.59;5065751;28;20532;-66
2021/08/22 11:03:03;;;;;;;8.15;4.00;;;;;;;34.35;20.89;95323.72;5046804;28;20075;-66
2021/08/22 11:05:31;;;;;;;7.50;4.22;;;;;;;34.34;20.35;95315.97;5065958;28;20127;-66
2021/08/22 11:08:20;;;;;;;5.53;4.25;;;;;;;34.24;19.56;95318.22;5065747;28;20041;-65
2021/08/22 11:11:01;;;;;;;6.13;4.95;;;;;;;34.41;20.03;95306.03;5065521;28;20048;-66
2021/08/22 11:13:31;;;;;;;9.70;4.70;;;;;;;33.72;20.87;95307.22;5065657;28;20043;-65
2021/08/22 11:16:07;;;;;;;6.28;4.20;;;;;;;34.31;20.13;95306.69;5065917;28;20501;-66
2021/08/22 11:18:35;;;;;;;6.07;4.10;;;;;;;34.70;19.30;95300.88;5065393;28;20047;-65
2021/08/22 11:21:03;;;;;;;6.03;5.07;;;;;;;35.17;19.38;95301.91;5065542;28;20044;-65
2021/08/22 11:23:30;;;;;;;7.95;4.18;;;;;;;35.41;18.97;95310.56;5058321;28;20106;-65
2021/08/22 11:26:03;;;;;;;5.45;4.63;;;;;;;35.53;19.01;95302.13;5064466;28;20614;-66
2021/08/22 11:28:30;;;;;;;5.07;4.25;;;;;;;35.80;19.01;95299.16;5065062;28;20037;-66
2021/08/22 11:30:57;;;;;;;8.65;4.65;;;;;;;36.17;18.37;95303.47;5066513;28;20440;-65
2021/08/22 11:33:28;;;;;;;8.27;4.75;;;;;;;36.35;18.10;95300.78;5068872;28;20123;-65
2021/08/22 11:35:55;;;;;;;5.72;4.50;;;;;;;36.45;19.14;95293.84;5068651;28;20048;-66
2021/08/22 11:38:22;;;;;;;5.75;4.05;;;;;;;36.25;18.11;95296.94;5068487;28;20048;-65
2021/08/22 11:40:49;;;;;;;9.63;4.65;;;;;;;35.99;19.33;95293.34;5068712;28;20051;-65
2021/08/22 11:43:16;;;;;;;9.90;5.85;;;;;;;35.98;20.15;95293.75;5068040;28;20086;-65
2021/08/22 11:45:44;;;;;;;5.35;4.53;;;;;;;35.96;18.54;95296.84;5066017;28;20049;-65